aviador You're here:

KPLN Decoded Metar

PELLSTON in MI, USA
Report Time2018-06-24 00:54:00
UTC Time2018-06-24 01:06:41
Flight Rules vfr VFR
Wind160° at 03 kt
W.Decomp.*RWY 14: 2.7 kt HW 1.3 kt RCW
RWY 23: 1.3 kt HW 2.7 kt LCW
W.Rank160° ranks 18
Current wind is below 160° avg. (5.1)
Visibility9999 m
Phenomena:N/A
Clouds:Overcast 037 Hf
Ceiling3,700 ft
Temp16°C (ISA +2)
Dew Point16°C (100% RH)
QNH1009 hPa
Density Alt1,378 ft
Elevation712 ft
Report Wrong Elevation
Raw Report
KPLN 240054Z AUTO 16003KT 10SM OVC037 16/16 A2979 RMK AO2 RAE45
SLP089 P0002 T01610156=

Extra information for KPLN:More info

Metar Taf Metar & Taf Last 4 Metars F.Rules Stats Wind Profile Meteogram Temp Stats Airport Information Weather charts Add Link Nearby VenuesMetar ALERT Operation Metar Decoded Social comments

AIRNAV info for KPLN